Time;durP1;ratioP1;P1;durP2;ratioP2;P2;SDS_P1;SDS_P2;PMS_P1;PMS_P2;Temp;Humidity;BMP_temperature;BMP_pressure;BME280_temperature;BME280_humidity;BME280_pressure;Samples;Min_cycle;Max_cycle;Signal;HPM_P1;HPM_P2
2022/11/28 00:01:18;;;;;;;12.23;7.32;;;;;;;;;;5030216;27;93625;-65
2022/11/28 00:03:45;;;;;;;20.45;8.15;;;;;;;;;;5035277;27;94860;-65
2022/11/28 00:06:11;;;;;;;13.35;7.55;;;;;;;;;;5017906;28;95602;-64
2022/11/28 00:08:37;;;;;;;11.55;7.57;;;;;;;;;;5016653;28;93699;-65
2022/11/28 00:11:05;;;;;;;14.85;7.57;;;;;;;;;;5019171;28;92461;-64
2022/11/28 00:13:31;;;;;;;11.40;7.20;;;;;;;;;;5018910;28;93349;-65
2022/11/28 00:15:58;;;;;;;12.73;7.35;;;;;;;;;;5033483;28;92944;-64
2022/11/28 00:18:25;;;;;;;14.05;7.45;;;;;;;;;;5036764;27;93419;-65
2022/11/28 00:20:51;;;;;;;13.30;7.18;;;;;;;;;;5022258;27;92672;-64
2022/11/28 00:23:17;;;;;;;11.82;7.45;;;;;;;;;;5020293;27;92515;-65
2022/11/28 00:25:44;;;;;;;14.52;7.32;;;;;;;;;;5019951;27;93174;-65
2022/11/28 00:28:10;;;;;;;10.60;6.78;;;;;;;;;;5012621;28;96086;-65
2022/11/28 00:30:36;;;;;;;11.57;7.38;;;;;;;;;;5016450;28;92375;-64
2022/11/28 00:33:03;;;;;;;11.68;7.47;;;;;;;;;;5018205;28;94259;-65
2022/11/28 00:35:29;;;;;;;9.32;6.72;;;;;;;;;;5032637;27;92875;-66
2022/11/28 00:37:55;;;;;;;15.65;7.75;;;;;;;;;;5034472;27;93146;-65
2022/11/28 00:40:22;;;;;;;11.35;7.25;;;;;;;;;;5034968;27;93490;-68
2022/11/28 00:42:48;;;;;;;12.32;7.05;;;;;;;;;;5027046;27;93830;-66
2022/11/28 00:45:14;;;;;;;19.42;7.72;;;;;;;;;;5017015;28;93342;-66
2022/11/28 00:47:40;;;;;;;13.05;7.18;;;;;;;;;;5021798;28;93454;-67
2022/11/28 00:50:07;;;;;;;12.88;7.22;;;;;;;;;;5025319;28;92643;-66
2022/11/28 00:52:33;;;;;;;17.88;8.05;;;;;;;;;;5029616;28;94996;-66
2022/11/28 00:54:59;;;;;;;15.57;7.20;;;;;;;;;;5037772;28;96702;-66
2022/11/28 00:57:26;;;;;;;21.00;8.80;;;;;;;;;;5032695;27;93097;-66
2022/11/28 00:59:52;;;;;;;17.48;8.70;;;;;;;;;;5035913;27;93408;-64
2022/11/28 01:02:18;;;;;;;14.25;7.90;;;;;;;;;;5036154;27;92575;-65
2022/11/28 01:04:44;;;;;;;13.48;8.25;;;;;;;;;;5029928;27;92975;-65
2022/11/28 01:07:11;;;;;;;13.45;7.88;;;;;;;;;;5016042;28;93481;-66
2022/11/28 01:09:37;;;;;;;14.82;7.97;;;;;;;;;;5025308;27;91851;-66
2022/11/28 01:12:03;;;;;;;13.20;8.02;;;;;;;;;;5009239;28;92688;-66
2022/11/28 01:14:30;;;;;;;15.48;7.93;;;;;;;;;;5019022;28;93734;-65
2022/11/28 01:16:56;;;;;;;15.10;8.50;;;;;;;;;;5012585;28;94775;-66
2022/11/28 01:19:22;;;;;;;20.75;9.07;;;;;;;;;;5012605;28;94360;-66
2022/11/28 01:21:49;;;;;;;11.05;8.02;;;;;;;;;;5011900;28;92520;-65
2022/11/28 01:24:15;;;;;;;12.20;7.80;;;;;;;;;;5015398;28;94073;-66
2022/11/28 01:26:42;;;;;;;13.82;7.93;;;;;;;;;;5015406;28;94198;-66
2022/11/28 01:29:09;;;;;;;16.92;7.68;;;;;;;;;;5010810;28;92877;-65
2022/11/28 01:31:35;;;;;;;12.25;7.55;;;;;;;;;;5005249;28;93579;-66
2022/11/28 01:34:02;;;;;;;12.75;8.00;;;;;;;;;;4995638;28;92663;-65
2022/11/28 01:36:28;;;;;;;12.23;7.70;;;;;;;;;;5016155;28;92454;-65
2022/11/28 01:38:55;;;;;;;12.73;7.80;;;;;;;;;;5031170;27;94175;-65
2022/11/28 01:41:22;;;;;;;13.02;7.82;;;;;;;;;;5015383;27;95002;-65
2022/11/28 01:43:58;;;;;;;12.88;7.63;;;;;;;;;;5015355;28;95524;-66
2022/11/28 01:46:24;;;;;;;12.02;7.43;;;;;;;;;;5015353;28;93444;-66
2022/11/28 01:48:51;;;;;;;11.32;7.20;;;;;;;;;;5015253;28;92354;-65
2022/11/28 01:51:18;;;;;;;12.48;6.60;;;;;;;;;;5002912;28;94693;-66
2022/11/28 01:53:45;;;;;;;13.93;8.02;;;;;;;;;;5007634;28;93404;-65
2022/11/28 01:56:13;;;;;;;11.00;7.28;;;;;;;;;;5015012;28;92978;-66
2022/11/28 01:58:42;;;;;;;12.68;7.22;;;;;;;;;;5022867;28;93467;-65
2022/11/28 02:01:09;;;;;;;12.60;7.20;;;;;;;;;;5014474;28;92461;-65
2022/11/28 02:03:39;;;;;;;12.77;7.43;;;;;;;;;;5014387;28;94349;-66
2022/11/28 02:06:05;;;;;;;13.85;7.43;;;;;;;;;;5011301;28;95914;-65
2022/11/28 02:08:33;;;;;;;11.10;6.43;;;;;;;;;;5002795;27;92524;-65
2022/11/28 02:11:13;;;;;;;11.02;7.00;;;;;;;;;;5014575;28;95804;-65
2022/11/28 02:13:46;;;;;;;12.30;7.25;;;;;;;;;;5013172;28;94631;-65
2022/11/28 02:16:21;;;;;;;12.05;7.45;;;;;;;;;;5015134;28;92434;-66
2022/11/28 02:19:10;;;;;;;18.00;6.97;;;;;;;;;;5014999;28;93241;-66
2022/11/28 02:21:37;;;;;;;15.90;7.18;;;;;;;;;;5004643;28;94035;-65
2022/11/28 02:24:22;;;;;;;18.83;7.68;;;;;;;;;;5011050;28;93323;-66
2022/11/28 02:26:49;;;;;;;17.20;7.35;;;;;;;;;;5007779;28;93927;-66
2022/11/28 02:29:15;;;;;;;13.38;6.65;;;;;;;;;;5012544;28;92740;-66
2022/11/28 02:31:57;;;;;;;15.80;7.05;;;;;;;;;;5011310;28;95227;-66
2022/11/28 02:34:28;;;;;;;12.05;7.00;;;;;;;;;;5012300;28;93478;-66
2022/11/28 02:36:59;;;;;;;12.85;6.72;;;;;;;;;;5014589;28;92376;-66
2022/11/28 02:39:31;;;;;;;13.02;6.00;;;;;;;;;;5012851;28;93359;-66
2022/11/28 02:42:04;;;;;;;11.73;6.68;;;;;;;;;;5013522;28;93620;-66
2022/11/28 02:44:38;;;;;;;12.80;6.85;;;;;;;;;;5016469;28;92460;-66
2022/11/28 02:47:11;;;;;;;12.57;6.22;;;;;;;;;;5013163;28;93443;-66
2022/11/28 02:49:43;;;;;;;11.20;6.43;;;;;;;;;;5016899;28;91881;-66
2022/11/28 02:52:12;;;;;;;13.98;6.22;;;;;;;;;;5005167;28;92473;-67
2022/11/28 02:54:38;;;;;;;12.75;6.05;;;;;;;;;;5017087;28;93424;-66
2022/11/28 02:57:05;;;;;;;8.55;5.78;;;;;;;;;;5015437;28;95184;-66
2022/11/28 02:59:51;;;;;;;10.93;5.82;;;;;;;;;;5016340;28;95587;-67
2022/11/28 03:02:21;;;;;;;13.32;6.03;;;;;;;;;;5017779;28;92877;-65
2022/11/28 03:04:56;;;;;;;10.95;5.93;;;;;;;;;;5016909;28;92489;-65
2022/11/28 03:07:32;;;;;;;8.85;5.15;;;;;;;;;;5019491;28;93323;-65
2022/11/28 03:10:04;;;;;;;14.63;5.60;;;;;;;;;;5016160;28;92541;-65
2022/11/28 03:12:49;;;;;;;8.85;5.32;;;;;;;;;;5015202;28;93367;-67
2022/11/28 03:15:18;;;;;;;12.10;5.55;;;;;;;;;;5017219;28;92845;-64
2022/11/28 03:18:06;;;;;;;8.80;5.35;;;;;;;;;;5016840;28;92777;-64
2022/11/28 03:20:35;;;;;;;8.85;5.28;;;;;;;;;;5015005;28;93350;-65
2022/11/28 03:23:08;;;;;;;10.25;5.78;;;;;;;;;;5014727;28;96853;-65
2022/11/28 03:25:37;;;;;;;9.05;5.70;;;;;;;;;;5017330;28;92478;-65
2022/11/28 03:28:07;;;;;;;11.85;5.88;;;;;;;;;;5019418;28;93167;-64
2022/11/28 03:31:00;;;;;;;14.77;6.22;;;;;;;;;;5016565;28;93107;-66
2022/11/28 03:33:30;;;;;;;10.32;5.55;;;;;;;;;;5013113;28;93168;-65
2022/11/28 03:36:02;;;;;;;11.50;5.70;;;;;;;;;;5015956;28;93502;-66
2022/11/28 03:38:34;;;;;;;12.05;6.00;;;;;;;;;;5016535;28;92428;-66
2022/11/28 03:41:04;;;;;;;10.38;6.00;;;;;;;;;;5013054;28;93508;-65
2022/11/28 03:43:33;;;;;;;14.65;6.57;;;;;;;;;;5016685;28;95748;-65
2022/11/28 03:46:03;;;;;;;9.40;6.18;;;;;;;;;;5009538;28;92438;-65
2022/11/28 03:48:32;;;;;;;8.50;5.57;;;;;;;;;;5014066;28;95597;-66
2022/11/28 03:51:04;;;;;;;10.02;5.75;;;;;;;;;;5018068;28;93447;-66
2022/11/28 03:53:34;;;;;;;12.27;5.80;;;;;;;;;;5015157;28;93168;-66
2022/11/28 03:56:04;;;;;;;11.13;5.90;;;;;;;;;;5016100;28;93654;-66
2022/11/28 03:58:35;;;;;;;14.68;6.00;;;;;;;;;;5014765;28;92684;-65
2022/11/28 04:01:06;;;;;;;11.43;6.20;;;;;;;;;;5016441;28;93141;-65
2022/11/28 04:03:33;;;;;;;7.70;5.60;;;;;;;;;;5029006;28;93277;-65
2022/11/28 04:06:05;;;;;;;9.70;5.88;;;;;;;;;;5020521;27;92221;-66
2022/11/28 04:08:36;;;;;;;8.15;5.78;;;;;;;;;;5014691;28;92441;-65
2022/11/28 04:11:04;;;;;;;10.65;6.20;;;;;;;;;;5014499;28;94063;-65
2022/11/28 04:13:30;;;;;;;7.78;5.63;;;;;;;;;;5016455;28;94919;-66
2022/11/28 04:16:03;;;;;;;9.93;6.00;;;;;;;;;;5014256;28;93542;-65
2022/11/28 04:18:37;;;;;;;9.27;6.00;;;;;;;;;;5014961;28;92598;-65
2022/11/28 04:21:13;;;;;;;10.73;6.50;;;;;;;;;;5016116;28;95231;-65
2022/11/28 04:23:41;;;;;;;10.13;6.07;;;;;;;;;;5014623;28;94035;-65
2022/11/28 04:26:19;;;;;;;13.50;6.43;;;;;;;;;;5015920;28;92432;-66
2022/11/28 04:28:47;;;;;;;10.05;6.53;;;;;;;;;;5016064;28;94096;-65
2022/11/28 04:31:15;;;;;;;12.40;6.97;;;;;;;;;;5015543;28;92786;-66
2022/11/28 04:33:43;;;;;;;10.57;6.38;;;;;;;;;;5014810;28;92499;-66
2022/11/28 04:36:10;;;;;;;11.45;6.50;;;;;;;;;;5017344;28;94321;-66
2022/11/28 04:38:37;;;;;;;8.82;5.97;;;;;;;;;;5013569;28;94882;-65
2022/11/28 04:41:03;;;;;;;22.30;6.95;;;;;;;;;;5014049;28;95251;-66
2022/11/28 04:43:32;;;;;;;16.67;7.15;;;;;;;;;;5013973;28;93614;-65
2022/11/28 04:46:00;;;;;;;;;;;;;;;;;;5016590;28;92473;-66
2022/11/28 04:48:26;;;;;;;10.05;5.97;;;;;;;;;;5015239;28;122304;-66
2022/11/28 04:51:08;;;;;;;9.38;6.57;;;;;;;;;;5015838;28;93709;-66
2022/11/28 04:53:38;;;;;;;11.38;6.72;;;;;;;;;;5014411;28;92522;-65
2022/11/28 04:56:11;;;;;;;9.95;6.53;;;;;;;;;;5015927;28;93363;-66
2022/11/28 04:58:40;;;;;;;8.70;6.63;;;;;;;;;;5017977;28;94367;-66
2022/11/28 05:01:08;;;;;;;8.38;6.50;;;;;;;;;;5015491;28;93777;-65
2022/11/28 05:03:35;;;;;;;8.80;6.03;;;;;;;;;;5013287;28;95862;-65
2022/11/28 05:06:07;;;;;;;8.07;6.63;;;;;;;;;;5015412;28;92436;-66
2022/11/28 05:08:34;;;;;;;9.80;6.47;;;;;;;;;;5013733;28;93391;-66
2022/11/28 05:11:00;;;;;;;10.32;6.78;;;;;;;;;;5010172;28;93782;-66
2022/11/28 05:13:26;;;;;;;14.05;6.28;;;;;;;;;;5014981;28;92431;-65
2022/11/28 05:15:52;;;;;;;14.48;6.32;;;;;;;;;;5015141;28;93490;-65
2022/11/28 05:18:19;;;;;;;11.13;6.53;;;;;;;;;;5012723;28;93740;-65
2022/11/28 05:20:45;;;;;;;7.90;6.30;;;;;;;;;;5028490;28;91715;-66
2022/11/28 05:23:11;;;;;;;8.88;6.15;;;;;;;;;;5008101;28;93415;-66
2022/11/28 05:25:38;;;;;;;9.02;6.43;;;;;;;;;;5018743;28;92497;-66
2022/11/28 05:28:05;;;;;;;9.80;6.53;;;;;;;;;;5026408;27;94903;-65
2022/11/28 05:30:31;;;;;;;9.35;6.10;;;;;;;;;;5026119;27;95865;-65
2022/11/28 05:32:58;;;;;;;9.60;6.78;;;;;;;;;;5029172;27;92472;-66
2022/11/28 05:35:24;;;;;;;11.13;7.07;;;;;;;;;;5026411;27;93120;-67
2022/11/28 05:37:50;;;;;;;9.18;6.10;;;;;;;;;;5024483;28;93788;-65
2022/11/28 05:40:16;;;;;;;10.35;6.75;;;;;;;;;;5027809;28;92528;-66
2022/11/28 05:42:43;;;;;;;10.00;6.45;;;;;;;;;;5003707;28;93410;-66
2022/11/28 05:45:09;;;;;;;8.93;6.13;;;;;;;;;;5019159;28;93136;-66
2022/11/28 05:47:35;;;;;;;11.88;6.95;;;;;;;;;;5022969;27;92578;-66
2022/11/28 05:50:02;;;;;;;12.13;6.20;;;;;;;;;;5012047;28;93954;-67
2022/11/28 05:52:30;;;;;;;11.75;6.28;;;;;;;;;;5015137;28;96184;-74
2022/11/28 05:54:58;;;;;;;7.85;6.38;;;;;;;;;;5010920;28;95553;-67
2022/11/28 05:57:25;;;;;;;11.73;7.65;;;;;;;;;;5015168;28;93417;-65
2022/11/28 05:59:51;;;;;;;9.25;6.53;;;;;;;;;;5031926;27;92402;-64
2022/11/28 06:02:17;;;;;;;8.68;6.57;;;;;;;;;;5030326;27;92998;-64
2022/11/28 06:04:44;;;;;;;6.85;6.18;;;;;;;;;;5013340;28;93022;-64
2022/11/28 06:07:10;;;;;;;12.65;6.95;;;;;;;;;;5009709;28;93367;-64
2022/11/28 06:09:36;;;;;;;10.52;6.85;;;;;;;;;;5015159;28;92815;-65
2022/11/28 06:12:03;;;;;;;9.88;6.72;;;;;;;;;;5014622;28;92439;-64
2022/11/28 06:14:29;;;;;;;8.57;6.60;;;;;;;;;;5015118;28;93111;-65
2022/11/28 06:16:56;;;;;;;9.70;6.00;;;;;;;;;;5016821;28;95491;-64
2022/11/28 06:19:22;;;;;;;9.30;6.07;;;;;;;;;;5012158;28;92496;-64
2022/11/28 06:21:49;;;;;;;9.43;6.65;;;;;;;;;;5011906;28;94813;-64
2022/11/28 06:24:15;;;;;;;8.48;6.28;;;;;;;;;;5016783;28;93345;-64
2022/11/28 06:26:41;;;;;;;6.90;6.20;;;;;;;;;;5011955;28;93444;-64
2022/11/28 06:29:08;;;;;;;9.85;6.28;;;;;;;;;;5016790;28;93410;-65
2022/11/28 06:31:34;;;;;;;8.63;6.15;;;;;;;;;;5019713;27;93156;-64
2022/11/28 06:34:00;;;;;;;10.18;6.40;;;;;;;;;;5026022;28;94635;-64
2022/11/28 06:36:27;;;;;;;7.05;6.18;;;;;;;;;;5013384;28;93781;-64
2022/11/28 06:38:53;;;;;;;8.75;5.90;;;;;;;;;;5023327;27;92610;-65
2022/11/28 06:41:20;;;;;;;8.60;6.68;;;;;;;;;;5022622;28;94973;-65
2022/11/28 06:43:46;;;;;;;11.95;7.72;;;;;;;;;;5014101;27;94337;-64
2022/11/28 06:46:17;;;;;;;9.00;6.75;;;;;;;;;;5018033;28;92461;-65
2022/11/28 06:48:44;;;;;;;12.05;6.97;;;;;;;;;;5013830;28;93539;-65
2022/11/28 06:51:11;;;;;;;10.25;6.85;;;;;;;;;;5017940;28;92470;-64
2022/11/28 06:53:38;;;;;;;9.75;7.40;;;;;;;;;;5017659;28;93177;-66
2022/11/28 06:56:05;;;;;;;7.60;6.65;;;;;;;;;;5012639;28;93734;-64
2022/11/28 06:58:32;;;;;;;8.65;6.90;;;;;;;;;;5013111;28;92058;-65
2022/11/28 07:01:04;;;;;;;12.80;7.90;;;;;;;;;;5012265;28;92450;-64
2022/11/28 07:03:30;;;;;;;8.73;7.00;;;;;;;;;;5013781;28;92479;-65
2022/11/28 07:05:58;;;;;;;11.18;8.07;;;;;;;;;;5011095;28;94918;-64
2022/11/28 07:08:24;;;;;;;12.65;8.30;;;;;;;;;;5015635;27;95432;-64
2022/11/28 07:10:51;;;;;;;17.60;9.60;;;;;;;;;;5013165;28;92539;-64
2022/11/28 07:13:17;;;;;;;17.52;9.63;;;;;;;;;;5014286;28;93308;-62
2022/11/28 07:15:47;;;;;;;15.95;9.70;;;;;;;;;;5014566;28;94413;-64
2022/11/28 07:18:13;;;;;;;18.30;10.00;;;;;;;;;;5011876;28;93063;-63
2022/11/28 07:20:40;;;;;;;21.60;10.57;;;;;;;;;;5033836;27;93334;-63
2022/11/28 07:23:06;;;;;;;17.05;9.05;;;;;;;;;;5033710;27;94105;-64
2022/11/28 07:25:32;;;;;;;14.85;9.50;;;;;;;;;;5011836;28;93140;-65
2022/11/28 07:27:59;;;;;;;11.85;9.65;;;;;;;;;;5026374;28;94193;-64
2022/11/28 07:30:25;;;;;;;11.23;9.30;;;;;;;;;;5021081;27;94944;-65
2022/11/28 07:32:51;;;;;;;13.15;9.32;;;;;;;;;;5013323;28;95819;-65
2022/11/28 07:35:18;;;;;;;14.43;9.88;;;;;;;;;;5018402;27;93704;-65
2022/11/28 07:37:44;;;;;;;13.07;9.63;;;;;;;;;;5013469;28;92466;-64
2022/11/28 07:40:12;;;;;;;12.88;9.20;;;;;;;;;;5015246;28;93160;-64
2022/11/28 07:42:38;;;;;;;14.95;8.90;;;;;;;;;;5005502;28;94720;-64
2022/11/28 07:45:05;;;;;;;13.35;10.00;;;;;;;;;;5017132;28;94053;-64
2022/11/28 07:47:32;;;;;;;14.52;9.68;;;;;;;;;;5014976;28;94713;-62
2022/11/28 07:49:58;;;;;;;16.58;10.77;;;;;;;;;;5018940;28;94701;-64
2022/11/28 07:52:25;;;;;;;20.33;11.60;;;;;;;;;;5016318;28;93493;-66
2022/11/28 07:54:51;;;;;;;14.63;10.45;;;;;;;;;;5006508;28;96832;-64
2022/11/28 07:57:17;;;;;;;17.52;10.75;;;;;;;;;;5011958;28;92566;-63
2022/11/28 07:59:43;;;;;;;14.57;10.88;;;;;;;;;;5004569;28;94383;-63
2022/11/28 08:02:10;;;;;;;19.63;11.73;;;;;;;;;;5011974;28;93506;-63
2022/11/28 08:04:37;;;;;;;19.25;12.00;;;;;;;;;;5014855;28;92492;-63
2022/11/28 08:07:11;;;;;;;18.15;11.27;;;;;;;;;;5014048;28;93444;-62
2022/11/28 08:09:38;;;;;;;21.10;11.38;;;;;;;;;;5011403;28;95021;-63
2022/11/28 08:12:04;;;;;;;17.42;11.63;;;;;;;;;;5012247;28;93057;-62
2022/11/28 08:14:35;;;;;;;19.13;12.05;;;;;;;;;;5020004;28;93336;-63
2022/11/28 08:17:02;;;;;;;22.33;13.20;;;;;;;;;;5019219;27;92397;-62
2022/11/28 08:19:28;;;;;;;18.73;12.48;;;;;;;;;;5011183;27;94994;-62
2022/11/28 08:22:00;;;;;;;21.23;13.45;;;;;;;;;;5012081;28;93646;-63
2022/11/28 08:24:26;;;;;;;19.55;12.43;;;;;;;;;;5010665;28;93031;-62
2022/11/28 08:26:52;;;;;;;17.05;12.13;;;;;;;;;;5010767;28;93519;-64
2022/11/28 08:29:19;;;;;;;17.52;11.20;;;;;;;;;;5013712;28;93775;-62
2022/11/28 08:31:45;;;;;;;18.65;11.35;;;;;;;;;;5025933;28;93157;-63
2022/11/28 08:34:11;;;;;;;17.65;10.57;;;;;;;;;;5036796;27;93632;-62
2022/11/28 08:36:38;;;;;;;16.20;10.52;;;;;;;;;;4996057;28;91651;-62
2022/11/28 08:39:05;;;;;;;18.05;11.05;;;;;;;;;;5001196;28;92512;-63
2022/11/28 08:41:49;;;;;;;18.63;11.00;;;;;;;;;;5013363;28;94864;-64
2022/11/28 08:44:16;;;;;;;15.93;11.45;;;;;;;;;;5010335;28;95388;-65
2022/11/28 08:46:42;;;;;;;16.27;11.48;;;;;;;;;;5017318;27;96650;-65
2022/11/28 08:49:08;;;;;;;16.73;11.13;;;;;;;;;;5013948;28;94990;-63
2022/11/28 08:51:35;;;;;;;17.08;11.73;;;;;;;;;;5005836;28;92658;-64
2022/11/28 08:54:01;;;;;;;17.42;12.18;;;;;;;;;;5014175;27;93921;-63
2022/11/28 08:56:28;;;;;;;17.38;12.10;;;;;;;;;;5005522;28;93558;-63
2022/11/28 08:58:54;;;;;;;32.33;17.83;;;;;;;;;;5015517;27;94155;-63
2022/11/28 09:01:22;;;;;;;20.95;14.27;;;;;;;;;;5010894;27;92767;-63
2022/11/28 09:03:49;;;;;;;17.17;11.25;;;;;;;;;;5015035;28;92510;-61
2022/11/28 09:06:16;;;;;;;17.65;11.68;;;;;;;;;;5019417;28;92577;-64
2022/11/28 09:08:43;;;;;;;19.95;11.88;;;;;;;;;;5023432;28;94913;-64
2022/11/28 09:11:10;;;;;;;22.38;14.63;;;;;;;;;;5015079;28;92439;-62
2022/11/28 09:13:36;;;;;;;16.73;12.32;;;;;;;;;;5013955;28;93423;-63
2022/11/28 09:16:03;;;;;;;17.52;12.85;;;;;;;;;;5019982;28;93797;-62
2022/11/28 09:18:30;;;;;;;19.42;12.07;;;;;;;;;;5031986;27;92666;-64
2022/11/28 09:20:57;;;;;;;16.10;11.70;;;;;;;;;;5012203;28;93499;-64
2022/11/28 09:23:23;;;;;;;18.58;11.93;;;;;;;;;;5012894;28;93287;-63
2022/11/28 09:25:50;;;;;;;23.30;13.80;;;;;;;;;;5010995;28;93657;-62
2022/11/28 09:28:16;;;;;;;23.00;14.02;;;;;;;;;;5013284;28;93487;-64
2022/11/28 09:30:42;;;;;;;28.50;13.93;;;;;;;;;;5014823;28;92457;-63
2022/11/28 09:33:10;;;;;;;24.83;14.57;;;;;;;;;;5012118;28;94936;-63
2022/11/28 09:35:37;;;;;;;26.63;14.20;;;;;;;;;;5013094;28;93476;-63
2022/11/28 09:38:03;;;;;;;26.55;14.90;;;;;;;;;;5019242;28;92792;-63
2022/11/28 09:40:48;;;;;;;33.67;16.13;;;;;;;;;;5022552;27;93464;-62
2022/11/28 09:43:17;;;;;;;28.75;15.18;;;;;;;;;;5020640;27;92570;-62
2022/11/28 09:45:44;;;;;;;39.15;17.13;;;;;;;;;;5015607;27;93273;-63
2022/11/28 09:48:16;;;;;;;38.05;18.77;;;;;;;;;;5028219;28;93460;-63
2022/11/28 09:50:42;;;;;;;50.22;19.42;;;;;;;;;;5014031;28;91694;-62
2022/11/28 09:53:15;;;;;;;58.40;20.88;;;;;;;;;;5014897;28;93858;-62
2022/11/28 09:55:47;;;;;;;59.58;22.52;;;;;;;;;;5014089;28;93987;-62
2022/11/28 09:58:26;;;;;;;50.22;20.50;;;;;;;;;;5012706;27;94968;-61
2022/11/28 10:00:56;;;;;;;55.65;22.48;;;;;;;;;;5012479;28;96727;-63
2022/11/28 10:03:34;;;;;;;54.13;21.67;;;;;;;;;;5031714;28;92408;-62
2022/11/28 10:06:01;;;;;;;62.17;23.50;;;;;;;;;;5024859;28;93419;-62
2022/11/28 10:08:54;;;;;;;73.30;25.60;;;;;;;;;;5024980;28;94448;-62
2022/11/28 10:11:23;;;;;;;64.75;23.23;;;;;;;;;;5010703;28;92369;-61
2022/11/28 10:14:18;;;;;;;64.78;25.55;;;;;;;;;;5014458;28;92367;-61
2022/11/28 10:16:50;;;;;;;64.03;24.15;;;;;;;;;;5014316;28;92562;-62
2022/11/28 10:19:18;;;;;;;62.10;24.23;;;;;;;;;;5016985;28;92413;-61
2022/11/28 10:22:10;;;;;;;68.20;26.15;;;;;;;;;;5033828;28;93183;-62
2022/11/28 10:24:40;;;;;;;59.13;21.90;;;;;;;;;;5018734;27;96907;-63
2022/11/28 10:27:09;;;;;;;65.93;26.70;;;;;;;;;;5025816;28;95912;-63
2022/11/28 10:29:44;;;;;;;64.88;25.48;;;;;;;;;;5033990;27;93472;-61
2022/11/28 10:32:15;;;;;;;65.03;26.05;;;;;;;;;;5025278;27;92351;-62
2022/11/28 10:34:50;;;;;;;64.93;26.02;;;;;;;;;;5006602;28;95687;-64
2022/11/28 10:37:35;;;;;;;66.82;26.15;;;;;;;;;;4992075;28;93466;-64
2022/11/28 10:40:21;;;;;;;69.93;27.20;;;;;;;;;;5017922;28;93936;-63
2022/11/28 10:42:59;;;;;;;60.42;25.75;;;;;;;;;;5019818;28;93275;-63
2022/11/28 10:45:29;;;;;;;62.10;26.10;;;;;;;;;;5024050;27;93433;-63
2022/11/28 10:48:07;;;;;;;64.22;27.88;;;;;;;;;;5019395;28;92505;-63
2022/11/28 10:51:12;;;;;;;78.43;29.63;;;;;;;;;;5015189;27;95385;-63
2022/11/28 10:53:46;;;;;;;79.80;30.35;;;;;;;;;;5034322;27;92385;-63
2022/11/28 10:56:22;;;;;;;72.75;29.38;;;;;;;;;;5016005;27;93889;-63
2022/11/28 10:59:12;;;;;;;85.72;31.45;;;;;;;;;;4999245;28;94430;-63
2022/11/28 11:01:39;;;;;;;94.07;32.72;;;;;;;;;;5013857;28;92622;-63
2022/11/28 11:04:17;;;;;;;89.70;30.80;;;;;;;;;;5014213;27;93534;-63
2022/11/28 11:06:59;;;;;;;81.15;32.20;;;;;;;;;;5005738;28;93586;-63
2022/11/28 11:09:36;;;;;;;72.20;28.75;;;;;;;;;;4998335;28;91801;-62
2022/11/28 11:12:04;;;;;;;69.93;28.45;;;;;;;;;;5019863;28;92658;-62
2022/11/28 11:14:35;;;;;;;78.47;30.38;;;;;;;;;;5015870;28;92434;-62
2022/11/28 11:17:02;;;;;;;78.90;31.52;;;;;;;;;;5014983;28;94934;-63
2022/11/28 11:19:30;;;;;;;80.95;30.25;;;;;;;;;;5016874;28;93777;-64
2022/11/28 11:22:11;;;;;;;74.28;29.20;;;;;;;;;;5014395;28;93114;-62
2022/11/28 11:24:38;;;;;;;63.28;27.05;;;;;;;;;;5018665;27;93893;-62
2022/11/28 11:27:15;;;;;;;67.22;27.90;;;;;;;;;;5015517;28;93357;-62
2022/11/28 11:29:41;;;;;;;76.75;29.67;;;;;;;;;;5015114;28;92450;-62
2022/11/28 11:32:20;;;;;;;71.35;29.20;;;;;;;;;;5011226;28;93711;-61
2022/11/28 11:34:46;;;;;;;61.80;28.27;;;;;;;;;;5019101;28;92657;-62
2022/11/28 11:37:27;;;;;;;60.03;25.90;;;;;;;;;;5015256;28;92482;-62
2022/11/28 11:39:54;;;;;;;63.55;25.85;;;;;;;;;;5026998;28;93316;-62
2022/11/28 11:42:28;;;;;;;60.90;26.65;;;;;;;;;;5013208;28;94867;-62
2022/11/28 11:44:54;;;;;;;60.70;26.88;;;;;;;;;;5013998;28;95634;-63
2022/11/28 11:47:41;;;;;;;58.63;25.38;;;;;;;;;;5013236;28;93796;-63
2022/11/28 11:50:17;;;;;;;53.97;24.17;;;;;;;;;;5022382;28;92702;-63
2022/11/28 11:52:58;;;;;;;60.45;26.77;;;;;;;;;;5014249;28;93397;-64
2022/11/28 11:55:27;;;;;;;62.55;25.77;;;;;;;;;;5014809;28;93760;-64
2022/11/28 11:57:54;;;;;;;57.10;26.45;;;;;;;;;;5013653;28;93351;-64
2022/11/28 12:00:33;;;;;;;69.25;26.55;;;;;;;;;;5015591;28;92992;-65
2022/11/28 12:03:03;;;;;;;64.20;26.73;;;;;;;;;;5016045;28;92585;-65
2022/11/28 12:05:38;;;;;;;53.45;25.77;;;;;;;;;;5016703;28;93172;-65
2022/11/28 12:08:31;;;;;;;52.50;25.52;;;;;;;;;;5014118;28;95992;-65
2022/11/28 12:11:06;;;;;;;54.60;24.88;;;;;;;;;;5015718;28;93145;-64
2022/11/28 12:13:33;;;;;;;53.45;24.90;;;;;;;;;;5015020;28;94053;-65
2022/11/28 12:16:02;;;;;;;61.75;27.02;;;;;;;;;;5015277;28;93484;-64
2022/11/28 12:18:34;;;;;;;55.55;24.77;;;;;;;;;;5011777;28;94070;-63
2022/11/28 12:21:05;;;;;;;58.10;25.52;;;;;;;;;;5011017;28;93452;-64
2022/11/28 12:23:45;;;;;;;56.67;26.48;;;;;;;;;;5010519;28;92612;-64
2022/11/28 12:26:16;;;;;;;54.13;25.73;;;;;;;;;;5013117;28;94662;-63
2022/11/28 12:28:48;;;;;;;57.65;25.45;;;;;;;;;;5013459;28;93488;-65
2022/11/28 12:31:23;;;;;;;62.08;27.63;;;;;;;;;;5010050;28;92413;-63
2022/11/28 12:34:03;;;;;;;58.63;26.85;;;;;;;;;;4999212;28;94854;-63
2022/11/28 12:36:36;;;;;;;62.13;26.15;;;;;;;;;;4996200;28;93390;-63
2022/11/28 12:39:21;;;;;;;61.95;26.92;;;;;;;;;;4996000;28;92356;-63
2022/11/28 12:42:17;;;;;;;62.05;27.92;;;;;;;;;;5010882;28;93313;-63
2022/11/28 12:44:54;;;;;;;63.40;26.67;;;;;;;;;;5000102;28;92502;-63
2022/11/28 12:47:21;;;;;;;69.35;28.30;;;;;;;;;;4995749;28;93526;-63
2022/11/28 12:49:59;;;;;;;62.63;28.63;;;;;;;;;;5001521;28;92456;-62
2022/11/28 12:52:58;;;;;;;62.75;28.05;;;;;;;;;;5005918;28;92632;-64
2022/11/28 12:55:36;;;;;;;55.17;27.02;;;;;;;;;;4990090;28;94131;-64
2022/11/28 12:58:11;;;;;;;62.97;27.35;;;;;;;;;;4979324;28;93495;-63
2022/11/28 13:00:46;;;;;;;55.40;26.85;;;;;;;;;;4975233;28;95054;-65
2022/11/28 13:03:19;;;;;;;55.92;25.90;;;;;;;;;;4986261;28;95599;-63
2022/11/28 13:05:48;;;;;;;52.67;26.27;;;;;;;;;;4967413;28;94275;-63
2022/11/28 13:08:33;;;;;;;57.78;27.70;;;;;;;;;;4989162;28;94415;-64
2022/11/28 13:11:09;;;;;;;56.40;27.73;;;;;;;;;;4991073;28;93424;-64
2022/11/28 13:13:45;;;;;;;54.80;25.52;;;;;;;;;;4988472;28;93262;-62
2022/11/28 13:16:25;;;;;;;59.63;26.13;;;;;;;;;;4985939;28;94154;-64
2022/11/28 13:18:56;;;;;;;50.00;24.85;;;;;;;;;;4980194;28;92644;-64
2022/11/28 13:21:28;;;;;;;55.53;26.27;;;;;;;;;;4969375;28;93348;-64
2022/11/28 13:23:54;;;;;;;53.72;25.55;;;;;;;;;;4970845;28;93679;-63
2022/11/28 13:26:33;;;;;;;46.67;24.42;;;;;;;;;;4983361;28;95923;-63
2022/11/28 13:29:05;;;;;;;58.53;25.83;;;;;;;;;;4993300;28;92584;-63
2022/11/28 13:31:55;;;;;;;48.47;24.85;;;;;;;;;;5005143;28;94550;-64
2022/11/28 13:34:28;;;;;;;54.17;25.95;;;;;;;;;;5011519;28;92518;-62
2022/11/28 13:37:02;;;;;;;61.72;26.65;;;;;;;;;;5030262;28;93171;-63
2022/11/28 13:39:48;;;;;;;64.53;27.48;;;;;;;;;;5029741;28;93055;-63
2022/11/28 13:42:20;;;;;;;57.63;27.83;;;;;;;;;;5007901;28;92563;-63
2022/11/28 13:45:15;;;;;;;70.15;28.90;;;;;;;;;;5002927;28;93214;-63
2022/11/28 13:47:42;;;;;;;63.95;28.02;;;;;;;;;;4998663;28;92429;-63
2022/11/28 13:50:26;;;;;;;67.55;31.00;;;;;;;;;;4996901;28;92539;-65
2022/11/28 13:52:55;;;;;;;70.22;30.92;;;;;;;;;;5006160;28;95028;-64
2022/11/28 13:55:45;;;;;;;80.63;33.17;;;;;;;;;;5003755;28;92576;-64
2022/11/28 13:58:14;;;;;;;71.43;30.98;;;;;;;;;;5005565;28;94025;-64
2022/11/28 14:00:41;;;;;;;75.78;31.20;;;;;;;;;;5005238;28;94919;-65
2022/11/28 14:03:18;;;;;;;72.15;30.58;;;;;;;;;;5002650;28;92586;-64
2022/11/28 14:05:45;;;;;;;79.70;30.52;;;;;;;;;;5011707;28;93407;-64
2022/11/28 14:08:25;;;;;;;64.95;29.73;;;;;;;;;;5012144;28;93905;-63
2022/11/28 14:10:59;;;;;;;63.15;27.60;;;;;;;;;;5008940;28;92124;-64
2022/11/28 14:13:44;;;;;;;77.22;30.85;;;;;;;;;;5012654;28;92925;-64
2022/11/28 14:16:16;;;;;;;77.10;30.67;;;;;;;;;;5005743;27;94272;-63
2022/11/28 14:18:52;;;;;;;69.90;29.25;;;;;;;;;;5010510;28;95038;-63
2022/11/28 14:21:29;;;;;;;69.80;28.50;;;;;;;;;;5028646;28;94526;-63
2022/11/28 14:23:55;;;;;;;75.32;29.20;;;;;;;;;;5022281;28;93613;-64
2022/11/28 14:26:32;;;;;;;75.28;29.25;;;;;;;;;;5012929;28;94186;-64
2022/11/28 14:29:00;;;;;;;63.88;27.83;;;;;;;;;;5010202;28;93848;-64
2022/11/28 14:31:28;;;;;;;69.55;29.15;;;;;;;;;;5012257;28;93109;-64
2022/11/28 14:33:59;;;;;;;62.83;29.05;;;;;;;;;;5028891;27;94168;-63
2022/11/28 14:36:29;;;;;;;64.07;28.38;;;;;;;;;;5032894;28;92716;-63
2022/11/28 14:39:02;;;;;;;75.30;30.05;;;;;;;;;;5015523;27;92695;-63
2022/11/28 14:41:29;;;;;;;77.32;31.75;;;;;;;;;;5012106;28;93450;-64
2022/11/28 14:44:15;;;;;;;73.85;31.35;;;;;;;;;;5009977;28;95207;-64
2022/11/28 14:47:00;;;;;;;81.35;33.05;;;;;;;;;;5016875;28;95779;-64